sensor_id;sensor_type;location;lat;lon;timestamp;pressure;altitude;pressure_sealevel;temperature;humidity
4022;BME280;2025;48.260;16.432;2024-01-06T00:01:05;98688.31;;;1.14;100.00
4022;BME280;2025;48.260;16.432;2024-01-06T00:03:32;98687.09;;;1.18;100.00
4022;BME280;2025;48.260;16.432;2024-01-06T00:05:59;98678.91;;;1.13;100.00
4022;BME280;2025;48.260;16.432;2024-01-06T00:08:26;98669.63;;;1.20;100.00
4022;BME280;2025;48.260;16.432;2024-01-06T00:10:54;98673.03;;;1.30;100.00
4022;BME280;2025;48.260;16.432;2024-01-06T00:13:21;98668.00;;;1.38;100.00
4022;BME280;2025;48.260;16.432;2024-01-06T00:15:48;98674.28;;;1.36;100.00
4022;BME280;2025;48.260;16.432;2024-01-06T00:18:17;98678.50;;;1.37;100.00
4022;BME280;2025;48.260;16.432;2024-01-06T00:20:44;98681.25;;;1.45;100.00
4022;BME280;2025;48.260;16.432;2024-01-06T00:23:11;98685.72;;;1.62;100.00
4022;BME280;2025;48.260;16.432;2024-01-06T00:25:38;98689.97;;;1.73;100.00
4022;BME280;2025;48.260;16.432;2024-01-06T00:28:05;98685.03;;;1.70;100.00
4022;BME280;2025;48.260;16.432;2024-01-06T00:30:32;98677.78;;;1.74;100.00
4022;BME280;2025;48.260;16.432;2024-01-06T00:32:59;98683.97;;;1.73;100.00
4022;BME280;2025;48.260;16.432;2024-01-06T00:35:28;98694.75;;;1.68;100.00
4022;BME280;2025;48.260;16.432;2024-01-06T00:37:55;98684.78;;;1.63;100.00
4022;BME280;2025;48.260;16.432;2024-01-06T00:40:22;98698.97;;;1.69;100.00
4022;BME280;2025;48.260;16.432;2024-01-06T00:42:49;98689.69;;;1.76;100.00
4022;BME280;2025;48.260;16.432;2024-01-06T00:45:16;98693.78;;;1.79;100.00
4022;BME280;2025;48.260;16.432;2024-01-06T00:47:43;98708.94;;;1.83;100.00
4022;BME280;2025;48.260;16.432;2024-01-06T00:50:10;98699.09;;;1.87;100.00
4022;BME280;2025;48.260;16.432;2024-01-06T00:52:39;98698.25;;;1.96;100.00
4022;BME280;2025;48.260;16.432;2024-01-06T00:55:07;98696.75;;;2.03;100.00
4022;BME280;2025;48.260;16.432;2024-01-06T00:57:34;98703.13;;;2.09;100.00
4022;BME280;2025;48.260;16.432;2024-01-06T01:00:03;98688.91;;;2.13;100.00
4022;BME280;2025;48.260;16.432;2024-01-06T01:02:31;98689.19;;;2.20;100.00
4022;BME280;2025;48.260;16.432;2024-01-06T01:04:58;98687.25;;;2.22;100.00
4022;BME280;2025;48.260;16.432;2024-01-06T01:07:25;98682.06;;;2.22;100.00
4022;BME280;2025;48.260;16.432;2024-01-06T01:09:54;98673.16;;;2.24;100.00
4022;BME280;2025;48.260;16.432;2024-01-06T01:12:21;98679.97;;;2.25;100.00
4022;BME280;2025;48.260;16.432;2024-01-06T01:14:49;98692.84;;;2.27;100.00
4022;BME280;2025;48.260;16.432;2024-01-06T01:17:16;98689.44;;;2.26;100.00
4022;BME280;2025;48.260;16.432;2024-01-06T01:19:43;98689.69;;;2.23;100.00
4022;BME280;2025;48.260;16.432;2024-01-06T01:22:10;98703.38;;;2.25;100.00
4022;BME280;2025;48.260;16.432;2024-01-06T01:24:37;98703.53;;;2.24;100.00
4022;BME280;2025;48.260;16.432;2024-01-06T01:27:06;98704.59;;;2.31;100.00
4022;BME280;2025;48.260;16.432;2024-01-06T01:29:33;98703.63;;;2.32;100.00
4022;BME280;2025;48.260;16.432;2024-01-06T01:32:00;98701.16;;;2.30;100.00
4022;BME280;2025;48.260;16.432;2024-01-06T01:34:27;98703.31;;;2.35;100.00
4022;BME280;2025;48.260;16.432;2024-01-06T01:36:54;98704.97;;;2.36;100.00
4022;BME280;2025;48.260;16.432;2024-01-06T01:39:21;98689.38;;;2.36;100.00
4022;BME280;2025;48.260;16.432;2024-01-06T01:41:48;98690.16;;;2.46;100.00
4022;BME280;2025;48.260;16.432;2024-01-06T01:44:16;98686.06;;;2.44;100.00
4022;BME280;2025;48.260;16.432;2024-01-06T01:46:43;98684.44;;;2.43;100.00
4022;BME280;2025;48.260;16.432;2024-01-06T01:49:11;98692.06;;;2.44;100.00
4022;BME280;2025;48.260;16.432;2024-01-06T01:51:38;98690.97;;;2.47;100.00
4022;BME280;2025;48.260;16.432;2024-01-06T01:54:06;98688.25;;;2.48;100.00
4022;BME280;2025;48.260;16.432;2024-01-06T01:56:33;98678.53;;;2.50;100.00
4022;BME280;2025;48.260;16.432;2024-01-06T01:59:04;98676.06;;;2.49;100.00
4022;BME280;2025;48.260;16.432;2024-01-06T02:01:33;98668.13;;;2.50;100.00
4022;BME280;2025;48.260;16.432;2024-01-06T02:04:01;98665.53;;;2.50;100.00
4022;BME280;2025;48.260;16.432;2024-01-06T02:06:28;98658.53;;;2.51;100.00
4022;BME280;2025;48.260;16.432;2024-01-06T02:08:55;98654.69;;;2.55;100.00
4022;BME280;2025;48.260;16.432;2024-01-06T02:11:22;98658.41;;;2.52;100.00
4022;BME280;2025;48.260;16.432;2024-01-06T02:13:49;98658.41;;;2.52;100.00
4022;BME280;2025;48.260;16.432;2024-01-06T02:16:16;98657.53;;;2.62;100.00
4022;BME280;2025;48.260;16.432;2024-01-06T02:18:45;98648.50;;;2.66;100.00
4022;BME280;2025;48.260;16.432;2024-01-06T02:21:13;98645.34;;;2.62;100.00
4022;BME280;2025;48.260;16.432;2024-01-06T02:23:42;98641.13;;;2.61;100.00
4022;BME280;2025;48.260;16.432;2024-01-06T02:26:10;98630.19;;;2.58;100.00
4022;BME280;2025;48.260;16.432;2024-01-06T02:28:38;98638.00;;;2.58;100.00
4022;BME280;2025;48.260;16.432;2024-01-06T02:31:05;98634.28;;;2.60;100.00
4022;BME280;2025;48.260;16.432;2024-01-06T02:33:32;98629.06;;;2.60;100.00
4022;BME280;2025;48.260;16.432;2024-01-06T02:35:59;98636.06;;;2.60;100.00
4022;BME280;2025;48.260;16.432;2024-01-06T02:38:26;98628.56;;;2.57;100.00
4022;BME280;2025;48.260;16.432;2024-01-06T02:40:55;98626.34;;;2.62;100.00
4022;BME280;2025;48.260;16.432;2024-01-06T02:43:22;98623.88;;;2.60;100.00
4022;BME280;2025;48.260;16.432;2024-01-06T02:45:49;98631.69;;;2.60;100.00
4022;BME280;2025;48.260;16.432;2024-01-06T02:48:16;98631.81;;;2.59;100.00
4022;BME280;2025;48.260;16.432;2024-01-06T02:50:43;98627.16;;;2.62;100.00
4022;BME280;2025;48.260;16.432;2024-01-06T02:53:10;98622.94;;;2.61;100.00
4022;BME280;2025;48.260;16.432;2024-01-06T02:55:38;98633.16;;;2.63;100.00
4022;BME280;2025;48.260;16.432;2024-01-06T02:58:06;98624.69;;;2.61;100.00
4022;BME280;2025;48.260;16.432;2024-01-06T03:00:33;98633.34;;;2.61;100.00
4022;BME280;2025;48.260;16.432;2024-01-06T03:03:00;98635.75;;;2.63;100.00
4022;BME280;2025;48.260;16.432;2024-01-06T03:05:27;98635.25;;;2.59;100.00
4022;BME280;2025;48.260;16.432;2024-01-06T03:07:54;98639.47;;;2.60;100.00
4022;BME280;2025;48.260;16.432;2024-01-06T03:10:21;98625.38;;;2.63;100.00
4022;BME280;2025;48.260;16.432;2024-01-06T03:12:48;98620.59;;;2.58;100.00
4022;BME280;2025;48.260;16.432;2024-01-06T03:15:17;98628.16;;;2.51;100.00
4022;BME280;2025;48.260;16.432;2024-01-06T03:17:44;98626.53;;;2.50;100.00
4022;BME280;2025;48.260;16.432;2024-01-06T03:20:11;98634.63;;;2.47;100.00
4022;BME280;2025;48.260;16.432;2024-01-06T03:22:38;98624.00;;;2.41;100.00
4022;BME280;2025;48.260;16.432;2024-01-06T03:25:05;98621.53;;;2.39;100.00
4022;BME280;2025;48.260;16.432;2024-01-06T03:27:33;98613.06;;;2.37;100.00
4022;BME280;2025;48.260;16.432;2024-01-06T03:30:00;98614.97;;;2.35;100.00
4022;BME280;2025;48.260;16.432;2024-01-06T03:32:28;98616.63;;;2.36;100.00
4022;BME280;2025;48.260;16.432;2024-01-06T03:34:55;98623.44;;;2.37;100.00
4022;BME280;2025;48.260;16.432;2024-01-06T03:37:22;98618.13;;;2.39;100.00
4022;BME280;2025;48.260;16.432;2024-01-06T03:39:49;98622.22;;;2.41;100.00
4022;BME280;2025;48.260;16.432;2024-01-06T03:42:16;98620.41;;;2.42;100.00
4022;BME280;2025;48.260;16.432;2024-01-06T03:44:43;98625.34;;;2.45;100.00
4022;BME280;2025;48.260;16.432;2024-01-06T03:47:11;98625.72;;;2.50;100.00
4022;BME280;2025;48.260;16.432;2024-01-06T03:49:39;98618.38;;;2.45;100.00
4022;BME280;2025;48.260;16.432;2024-01-06T03:52:06;98621.91;;;2.44;100.00
4022;BME280;2025;48.260;16.432;2024-01-06T03:54:33;98622.88;;;2.43;100.00
4022;BME280;2025;48.260;16.432;2024-01-06T03:57:00;98618.19;;;2.47;100.00
4022;BME280;2025;48.260;16.432;2024-01-06T03:59:27;98618.06;;;2.48;100.00
4022;BME280;2025;48.260;16.432;2024-01-06T04:01:54;98623.41;;;2.47;100.00
4022;BME280;2025;48.260;16.432;2024-01-06T04:04:21;98624.06;;;2.49;100.00
4022;BME280;2025;48.260;16.432;2024-01-06T04:06:50;98622.44;;;2.48;100.00
4022;BME280;2025;48.260;16.432;2024-01-06T04:09:17;98636.13;;;2.50;100.00
4022;BME280;2025;48.260;16.432;2024-01-06T04:11:44;98644.06;;;2.48;100.00
4022;BME280;2025;48.260;16.432;2024-01-06T04:14:11;98642.25;;;2.49;100.00
4022;BME280;2025;48.260;16.432;2024-01-06T04:16:38;98645.03;;;2.47;100.00
4022;BME280;2025;48.260;16.432;2024-01-06T04:19:05;98644.06;;;2.48;100.00
4022;BME280;2025;48.260;16.432;2024-01-06T04:21:33;98643.09;;;2.49;100.00
4022;BME280;2025;48.260;16.432;2024-01-06T04:24:01;98643.75;;;2.51;100.00
4022;BME280;2025;48.260;16.432;2024-01-06T04:26:28;98653.50;;;2.49;100.00
4022;BME280;2025;48.260;16.432;2024-01-06T04:28:55;98651.97;;;2.47;100.00
4022;BME280;2025;48.260;16.432;2024-01-06T04:31:22;98661.19;;;2.41;100.00
4022;BME280;2025;48.260;16.432;2024-01-06T04:33:49;98667.38;;;2.40;100.00
4022;BME280;2025;48.260;16.432;2024-01-06T04:36:16;98659.56;;;2.40;100.00
4022;BME280;2025;48.260;16.432;2024-01-06T04:38:43;98667.63;;;2.37;100.00
4022;BME280;2025;48.260;16.432;2024-01-06T04:41:11;98667.63;;;2.37;100.00
4022;BME280;2025;48.260;16.432;2024-01-06T04:43:38;98666.13;;;2.35;100.00
4022;BME280;2025;48.260;16.432;2024-01-06T04:46:05;98666.44;;;2.31;100.00
4022;BME280;2025;48.260;16.432;2024-01-06T04:48:32;98663.03;;;2.31;100.00
4022;BME280;2025;48.260;16.432;2024-01-06T04:50:59;98666.56;;;2.30;100.00
4022;BME280;2025;48.260;16.432;2024-01-06T04:53:28;98674.66;;;2.27;100.00
4022;BME280;2025;48.260;16.432;2024-01-06T04:55:55;98676.16;;;2.29;100.00
4022;BME280;2025;48.260;16.432;2024-01-06T04:58:24;98676.44;;;2.26;100.00
4022;BME280;2025;48.260;16.432;2024-01-06T05:00:51;98685.34;;;2.24;100.00
4022;BME280;2025;48.260;16.432;2024-01-06T05:03:18;98669.59;;;2.25;100.00
4022;BME280;2025;48.260;16.432;2024-01-06T05:05:45;98685.19;;;2.25;100.00
4022;BME280;2025;48.260;16.432;2024-01-06T05:08:12;98674.94;;;2.24;100.00
4022;BME280;2025;48.260;16.432;2024-01-06T05:10:39;98675.75;;;2.24;100.00
4022;BME280;2025;48.260;16.432;2024-01-06T05:13:06;98682.44;;;2.27;100.00
4022;BME280;2025;48.260;16.432;2024-01-06T05:15:35;98686.00;;;2.26;100.00
4022;BME280;2025;48.260;16.432;2024-01-06T05:18:02;98677.09;;;2.28;100.00
4022;BME280;2025;48.260;16.432;2024-01-06T05:20:29;98678.44;;;2.32;100.00
4022;BME280;2025;48.260;16.432;2024-01-06T05:22:56;98676.00;;;2.31;100.00
4022;BME280;2025;48.260;16.432;2024-01-06T05:25:23;98674.91;;;2.34;100.00
4022;BME280;2025;48.260;16.432;2024-01-06T05:27:50;98674.91;;;2.34;100.00
4022;BME280;2025;48.260;16.432;2024-01-06T05:30:17;98682.03;;;2.31;100.00
4022;BME280;2025;48.260;16.432;2024-01-06T05:32:46;98675.84;;;2.32;100.00
4022;BME280;2025;48.260;16.432;2024-01-06T05:35:13;98673.50;;;2.39;100.00
4022;BME280;2025;48.260;16.432;2024-01-06T05:37:40;98662.16;;;2.40;100.00
4022;BME280;2025;48.260;16.432;2024-01-06T05:40:08;98655.75;;;2.35;100.00
4022;BME280;2025;48.260;16.432;2024-01-06T05:42:36;98653.28;;;2.33;100.00
4022;BME280;2025;48.260;16.432;2024-01-06T05:45:04;98660.94;;;2.35;100.00
4022;BME280;2025;48.260;16.432;2024-01-06T05:47:31;98673.53;;;2.29;100.00
4022;BME280;2025;48.260;16.432;2024-01-06T05:50:00;98683.13;;;2.29;100.00
4022;BME280;2025;48.260;16.432;2024-01-06T05:52:27;98688.31;;;2.29;100.00
4022;BME280;2025;48.260;16.432;2024-01-06T05:54:54;98684.47;;;2.33;100.00
4022;BME280;2025;48.260;16.432;2024-01-06T05:57:21;98674.91;;;2.34;100.00
4022;BME280;2025;48.260;16.432;2024-01-06T05:59:48;98679.81;;;2.37;100.00
4022;BME280;2025;48.260;16.432;2024-01-06T06:02:15;98673.50;;;2.39;100.00
4022;BME280;2025;48.260;16.432;2024-01-06T06:04:42;98667.50;;;2.39;100.00
4022;BME280;2025;48.260;16.432;2024-01-06T06:07:10;98671.19;;;2.36;100.00
4022;BME280;2025;48.260;16.432;2024-01-06T06:09:37;98676.41;;;2.36;100.00
4022;BME280;2025;48.260;16.432;2024-01-06T06:12:06;98695.69;;;2.34;100.00
4022;BME280;2025;48.260;16.432;2024-01-06T06:14:33;98698.13;;;2.35;100.00
4022;BME280;2025;48.260;16.432;2024-01-06T06:17:00;98690.88;;;2.39;100.00
4022;BME280;2025;48.260;16.432;2024-01-06T06:19:27;98694.44;;;2.38;100.00
4022;BME280;2025;48.260;16.432;2024-01-06T06:21:54;98689.91;;;2.40;100.00
4022;BME280;2025;48.260;16.432;2024-01-06T06:24:23;98695.78;;;2.42;100.00
4022;BME280;2025;48.260;16.432;2024-01-06T06:26:50;98695.66;;;2.43;100.00
4022;BME280;2025;48.260;16.432;2024-01-06T06:29:17;98692.25;;;2.43;100.00
4022;BME280;2025;48.260;16.432;2024-01-06T06:31:46;98696.59;;;2.42;100.00
4022;BME280;2025;48.260;16.432;2024-01-06T06:34:14;98696.47;;;2.44;100.00
4022;BME280;2025;48.260;16.432;2024-01-06T06:36:41;98698.94;;;2.45;100.00
4022;BME280;2025;48.260;16.432;2024-01-06T06:39:08;98697.00;;;2.47;100.00
4022;BME280;2025;48.260;16.432;2024-01-06T06:41:36;98698.63;;;2.48;100.00
4022;BME280;2025;48.260;16.432;2024-01-06T06:44:04;98705.75;;;2.46;100.00
4022;BME280;2025;48.260;16.432;2024-01-06T06:46:31;98704.25;;;2.44;100.00
4022;BME280;2025;48.260;16.432;2024-01-06T06:48:58;98705.75;;;2.46;100.00
4022;BME280;2025;48.260;16.432;2024-01-06T06:51:25;98707.91;;;2.51;100.00
4022;BME280;2025;48.260;16.432;2024-01-06T06:53:52;98711.50;;;2.50;100.00
4022;BME280;2025;48.260;16.432;2024-01-06T06:56:19;98703.28;;;2.55;100.00
4022;BME280;2025;48.260;16.432;2024-01-06T06:58:48;98706.56;;;2.57;100.00
4022;BME280;2025;48.260;16.432;2024-01-06T07:01:15;98717.75;;;2.57;100.00
4022;BME280;2025;48.260;16.432;2024-01-06T07:03:42;98713.06;;;2.61;100.00
4022;BME280;2025;48.260;16.432;2024-01-06T07:06:11;98713.25;;;2.59;100.00
4022;BME280;2025;48.260;16.432;2024-01-06T07:08:38;98722.66;;;2.60;100.00
4022;BME280;2025;48.260;16.432;2024-01-06T07:11:07;98726.22;;;2.59;100.00
4022;BME280;2025;48.260;16.432;2024-01-06T07:13:34;98727.03;;;2.60;100.00
4022;BME280;2025;48.260;16.432;2024-01-06T07:16:03;98740.84;;;2.60;100.00
4022;BME280;2025;48.260;16.432;2024-01-06T07:18:32;98740.03;;;2.60;100.00
4022;BME280;2025;48.260;16.432;2024-01-06T07:20:59;98741.53;;;2.62;100.00
4022;BME280;2025;48.260;16.432;2024-01-06T07:23:26;98745.75;;;2.63;100.00
4022;BME280;2025;48.260;16.432;2024-01-06T07:25:53;98749.19;;;2.64;100.00
4022;BME280;2025;48.260;16.432;2024-01-06T07:28:22;98741.41;;;2.64;100.00
4022;BME280;2025;48.260;16.432;2024-01-06T07:30:49;98742.78;;;2.58;100.00
4022;BME280;2025;48.260;16.432;2024-01-06T07:33:17;98744.56;;;2.58;100.00
4022;BME280;2025;48.260;16.432;2024-01-06T07:35:44;98753.97;;;2.59;100.00
4022;BME280;2025;48.260;16.432;2024-01-06T07:38:12;98758.53;;;2.57;100.00
4022;BME280;2025;48.260;16.432;2024-01-06T07:40:39;98756.06;;;2.55;100.00
4022;BME280;2025;48.260;16.432;2024-01-06T07:43:07;98750.31;;;2.51;100.00
4022;BME280;2025;48.260;16.432;2024-01-06T07:45:34;98751.44;;;2.49;100.00
4022;BME280;2025;48.260;16.432;2024-01-06T07:48:01;98761.00;;;2.48;100.00
4022;BME280;2025;48.260;16.432;2024-01-06T07:50:30;98754.88;;;2.49;100.00
4022;BME280;2025;48.260;16.432;2024-01-06T07:52:57;98758.41;;;2.48;100.00
4022;BME280;2025;48.260;16.432;2024-01-06T07:55:24;98756.63;;;2.49;100.00
4022;BME280;2025;48.260;16.432;2024-01-06T07:57:54;98758.13;;;2.51;100.00
4022;BME280;2025;48.260;16.432;2024-01-06T08:00:21;98758.13;;;2.51;100.00
4022;BME280;2025;48.260;16.432;2024-01-06T08:02:48;98759.09;;;2.50;100.00
4022;BME280;2025;48.260;16.432;2024-01-06T08:05:15;98751.97;;;2.52;100.00
4022;BME280;2025;48.260;16.432;2024-01-06T08:07:43;98764.00;;;2.53;100.00
4022;BME280;2025;48.260;16.432;2024-01-06T08:10:10;98761.94;;;2.57;100.00
4022;BME280;2025;48.260;16.432;2024-01-06T08:12:37;98765.78;;;2.53;100.00
4022;BME280;2025;48.260;16.432;2024-01-06T08:15:05;98767.19;;;2.47;100.00
4022;BME280;2025;48.260;16.432;2024-01-06T08:17:34;98767.88;;;2.49;100.00
4022;BME280;2025;48.260;16.432;2024-01-06T08:20:01;98775.09;;;2.46;100.00
4022;BME280;2025;48.260;16.432;2024-01-06T08:22:28;98777.56;;;2.47;100.00
4022;BME280;2025;48.260;16.432;2024-01-06T08:24:57;98773.31;;;2.46;100.00
4022;BME280;2025;48.260;16.432;2024-01-06T08:27:24;98780.59;;;2.43;100.00
4022;BME280;2025;48.260;16.432;2024-01-06T08:29:51;98780.59;;;2.43;100.00
4022;BME280;2025;48.260;16.432;2024-01-06T08:32:18;98786.75;;;2.42;100.00
4022;BME280;2025;48.260;16.432;2024-01-06T08:34:45;98786.06;;;2.40;100.00
4022;BME280;2025;48.260;16.432;2024-01-06T08:37:12;98787.41;;;2.44;100.00
4022;BME280;2025;48.260;16.432;2024-01-06T08:39:39;98783.63;;;2.38;100.00
4022;BME280;2025;48.260;16.432;2024-01-06T08:42:08;98786.59;;;2.43;100.00
4022;BME280;2025;48.260;16.432;2024-01-06T08:44:35;98784.56;;;2.37;100.00
4022;BME280;2025;48.260;16.432;2024-01-06T08:47:02;98787.84;;;2.39;100.00
4022;BME280;2025;48.260;16.432;2024-01-06T08:49:29;98785.94;;;2.41;100.00
4022;BME280;2025;48.260;16.432;2024-01-06T08:51:57;98796.31;;;2.41;100.00
4022;BME280;2025;48.260;16.432;2024-01-06T08:54:24;98795.78;;;2.47;100.00
4022;BME280;2025;48.260;16.432;2024-01-06T08:56:51;98794.13;;;2.46;100.00
4022;BME280;2025;48.260;16.432;2024-01-06T08:59:20;98794.94;;;2.47;100.00
4022;BME280;2025;48.260;16.432;2024-01-06T09:01:47;98798.50;;;2.46;100.00
4022;BME280;2025;48.260;16.432;2024-01-06T09:04:14;98803.03;;;2.44;100.00
4022;BME280;2025;48.260;16.432;2024-01-06T09:06:41;98800.41;;;2.44;100.00
4022;BME280;2025;48.260;16.432;2024-01-06T09:09:08;98804.81;;;2.43;100.00
4022;BME280;2025;48.260;16.432;2024-01-06T09:11:36;98812.59;;;2.43;100.00
4022;BME280;2025;48.260;16.432;2024-01-06T09:14:03;98808.22;;;2.44;100.00
4022;BME280;2025;48.260;16.432;2024-01-06T09:16:31;98820.09;;;2.46;100.00
4022;BME280;2025;48.260;16.432;2024-01-06T09:18:58;98814.09;;;2.46;100.00
4022;BME280;2025;48.260;16.432;2024-01-06T09:21:25;98819.00;;;2.49;100.00
4022;BME280;2025;48.260;16.432;2024-01-06T09:23:52;98815.59;;;2.48;100.00
4022;BME280;2025;48.260;16.432;2024-01-06T09:26:19;98816.41;;;2.49;100.00
4022;BME280;2025;48.260;16.432;2024-01-06T09:28:46;98817.09;;;2.51;100.00
4022;BME280;2025;48.260;16.432;2024-01-06T09:31:13;98819.69;;;2.51;100.00
4022;BME280;2025;48.260;16.432;2024-01-06T09:33:42;98820.38;;;2.53;100.00
4022;BME280;2025;48.260;16.432;2024-01-06T09:36:09;98829.66;;;2.56;100.00
4022;BME280;2025;48.260;16.432;2024-01-06T09:38:37;98831.31;;;2.57;100.00
4022;BME280;2025;48.260;16.432;2024-01-06T09:41:04;98829.38;;;2.59;100.00
4022;BME280;2025;48.260;16.432;2024-01-06T09:43:31;98825.97;;;2.58;100.00
4022;BME280;2025;48.260;16.432;2024-01-06T09:46:05;98832.81;;;2.59;100.00
4022;BME280;2025;48.260;16.432;2024-01-06T09:48:35;98825.81;;;2.60;100.00
4022;BME280;2025;48.260;16.432;2024-01-06T09:51:10;98829.38;;;2.59;100.00
4022;BME280;2025;48.260;16.432;2024-01-06T09:53:43;98823.22;;;2.60;100.00
4022;BME280;2025;48.260;16.432;2024-01-06T09:56:11;98821.44;;;2.60;100.00
4022;BME280;2025;48.260;16.432;2024-01-06T09:58:39;98821.03;;;2.65;100.00
4022;BME280;2025;48.260;16.432;2024-01-06T10:01:06;98822.50;;;2.67;100.00
4022;BME280;2025;48.260;16.432;2024-01-06T10:03:35;98824.16;;;2.68;100.00
4022;BME280;2025;48.260;16.432;2024-01-06T10:06:02;98820.31;;;2.72;100.00
4022;BME280;2025;48.260;16.432;2024-01-06T10:08:31;98821.28;;;2.71;100.00
4022;BME280;2025;48.260;16.432;2024-01-06T10:11:00;98817.06;;;2.70;100.00
4022;BME280;2025;48.260;16.432;2024-01-06T10:13:28;98815.94;;;2.73;100.00
4022;BME280;2025;48.260;16.432;2024-01-06T10:15:56;98814.00;;;2.75;100.00
4022;BME280;2025;48.260;16.432;2024-01-06T10:18:25;98822.47;;;2.77;100.00
4022;BME280;2025;48.260;16.432;2024-01-06T10:20:52;98821.53;;;2.78;100.00
4022;BME280;2025;48.260;16.432;2024-01-06T10:23:22;98821.53;;;2.78;100.00
4022;BME280;2025;48.260;16.432;2024-01-06T10:25:53;98826.31;;;2.83;100.00
4022;BME280;2025;48.260;16.432;2024-01-06T10:28:20;98831.22;;;2.86;100.00
4022;BME280;2025;48.260;16.432;2024-01-06T10:30:48;98826.16;;;2.84;100.00
4022;BME280;2025;48.260;16.432;2024-01-06T10:33:16;98832.03;;;2.86;100.00
4022;BME280;2025;48.260;16.432;2024-01-06T10:35:43;98826.81;;;2.86;100.00
4022;BME280;2025;48.260;16.432;2024-01-06T10:38:11;98830.78;;;2.90;100.00
4022;BME280;2025;48.260;16.432;2024-01-06T10:40:38;98834.88;;;2.93;100.00
4022;BME280;2025;48.260;16.432;2024-01-06T10:43:07;98827.25;;;2.91;100.00
4022;BME280;2025;48.260;16.432;2024-01-06T10:45:36;98827.25;;;2.91;100.00
4022;BME280;2025;48.260;16.432;2024-01-06T10:48:05;98828.06;;;2.92;100.00
4022;BME280;2025;48.260;16.432;2024-01-06T10:50:33;98830.50;;;2.93;100.00
4022;BME280;2025;48.260;16.432;2024-01-06T10:53:00;98823.66;;;2.92;100.00
4022;BME280;2025;48.260;16.432;2024-01-06T10:55:29;98829.41;;;2.96;100.00
4022;BME280;2025;48.260;16.432;2024-01-06T10:57:58;98824.06;;;2.98;100.00
4022;BME280;2025;48.260;16.432;2024-01-06T11:00:27;98823.09;;;2.99;100.00
4022;BME280;2025;48.260;16.432;2024-01-06T11:02:55;98818.41;;;3.02;100.00
4022;BME280;2025;48.260;16.432;2024-01-06T11:05:23;98816.50;;;3.04;100.00
4022;BME280;2025;48.260;16.432;2024-01-06T11:07:50;98819.78;;;3.06;100.00
4022;BME280;2025;48.260;16.432;2024-01-06T11:10:25;98819.47;;;3.09;100.00
4022;BME280;2025;48.260;16.432;2024-01-06T11:13:09;98808.25;;;3.09;100.00
4022;BME280;2025;48.260;16.432;2024-01-06T11:15:42;98805.09;;;3.15;100.00
4022;BME280;2025;48.260;16.432;2024-01-06T11:18:10;98799.88;;;3.15;100.00
4022;BME280;2025;48.260;16.432;2024-01-06T11:21:20;98795.75;;;3.22;100.00
4022;BME280;2025;48.260;16.432;2024-01-06T11:24:19;98783.41;;;3.24;100.00
4022;BME280;2025;48.260;16.432;2024-01-06T11:26:51;98778.56;;;3.29;100.00
4022;BME280;2025;48.260;16.432;2024-01-06T11:29:19;98783.41;;;3.24;100.00
4022;BME280;2025;48.260;16.432;2024-01-06T11:32:25;98787.06;;;3.31;100.00
4022;BME280;2025;48.260;16.432;2024-01-06T11:34:53;98788.81;;;3.31;100.00
4022;BME280;2025;48.260;16.432;2024-01-06T11:37:25;98787.56;;;3.35;100.00
4022;BME280;2025;48.260;16.432;2024-01-06T11:39:52;98787.56;;;3.35;100.00
4022;BME280;2025;48.260;16.432;2024-01-06T11:42:19;98780.44;;;3.37;100.00
4022;BME280;2025;48.260;16.432;2024-01-06T11:44:50;98779.50;;;3.38;100.00
4022;BME280;2025;48.260;16.432;2024-01-06T11:47:18;98782.22;;;3.36;100.00
4022;BME280;2025;48.260;16.432;2024-01-06T11:49:54;98773.44;;;3.37;100.00
4022;BME280;2025;48.260;16.432;2024-01-06T11:52:22;98773.75;;;3.34;100.00
4022;BME280;2025;48.260;16.432;2024-01-06T11:54:52;98772.50;;;3.38;100.00
4022;BME280;2025;48.260;16.432;2024-01-06T11:57:19;98777.03;;;3.36;100.00
4022;BME280;2025;48.260;16.432;2024-01-06T11:59:47;98775.38;;;3.35;100.00
4022;BME280;2025;48.260;16.432;2024-01-06T12:02:17;98774.84;;;3.32;100.00
4022;BME280;2025;48.260;16.432;2024-01-06T12:04:49;98775.38;;;3.35;100.00
4022;BME280;2025;48.260;16.432;2024-01-06T12:07:17;98769.34;;;3.35;100.00
4022;BME280;2025;48.260;16.432;2024-01-06T12:09:45;98770.84;;;3.37;100.00
4022;BME280;2025;48.260;16.432;2024-01-06T12:12:15;98780.13;;;3.40;100.00
4022;BME280;2025;48.260;16.432;2024-01-06T12:14:42;98781.63;;;3.43;100.00
4022;BME280;2025;48.260;16.432;2024-01-06T12:17:11;98778.50;;;3.39;100.00
4022;BME280;2025;48.260;16.432;2024-01-06T12:19:39;98779.19;;;3.41;100.00
4022;BME280;2025;48.260;16.432;2024-01-06T12:22:10;98786.81;;;3.43;100.00
4022;BME280;2025;48.260;16.432;2024-01-06T12:24:38;98784.38;;;3.41;100.00
4022;BME280;2025;48.260;16.432;2024-01-06T12:27:07;98783.72;;;3.39;100.00
4022;BME280;2025;48.260;16.432;2024-01-06T12:29:37;98774.28;;;3.38;100.00
4022;BME280;2025;48.260;16.432;2024-01-06T12:32:05;98778.66;;;3.37;100.00
4022;BME280;2025;48.260;16.432;2024-01-06T12:34:33;98777.69;;;3.38;100.00
4022;BME280;2025;48.260;16.432;2024-01-06T12:37:00;98782.59;;;3.42;100.00
4022;BME280;2025;48.260;16.432;2024-01-06T12:39:30;98782.47;;;3.43;100.00
4022;BME280;2025;48.260;16.432;2024-01-06T12:41:58;98786.00;;;3.42;100.00
4022;BME280;2025;48.260;16.432;2024-01-06T12:44:26;98784.09;;;3.44;100.00
4022;BME280;2025;48.260;16.432;2024-01-06T12:46:53;98790.28;;;3.43;100.00
4022;BME280;2025;48.260;16.432;2024-01-06T12:49:20;98791.91;;;3.44;100.00
4022;BME280;2025;48.260;16.432;2024-01-06T12:51:47;98782.03;;;3.48;100.00
4022;BME280;2025;48.260;16.432;2024-01-06T12:54:14;98779.56;;;3.46;100.00
4022;BME280;2025;48.260;16.432;2024-01-06T12:56:43;98779.69;;;3.45;100.00
4022;BME280;2025;48.260;16.432;2024-01-06T12:59:10;98778.75;;;3.46;100.00
4022;BME280;2025;48.260;16.432;2024-01-06T13:01:37;98786.56;;;3.46;100.00
4022;BME280;2025;48.260;16.432;2024-01-06T13:04:04;98781.03;;;3.49;100.00
4022;BME280;2025;48.260;16.432;2024-01-06T13:06:31;98780.09;;;3.50;100.00
4022;BME280;2025;48.260;16.432;2024-01-06T13:09:00;98779.56;;;3.46;100.00
4022;BME280;2025;48.260;16.432;2024-01-06T13:11:32;98782.16;;;3.46;100.00
4022;BME280;2025;48.260;16.432;2024-01-06T13:14:01;98775.03;;;3.48;100.00